Time;durP1;ratioP1;P1;durP2;ratioP2;P2;SDS_P1;SDS_P2;PMS_P1;PMS_P2;Temp;Humidity;BMP_temperature;BMP_pressure;BME280_temperature;BME280_humidity;BME280_pressure;Samples;Min_cycle;Max_cycle;Signal;HPM_P1;HPM_P2
2022/11/25 00:00:09;;;;;;;20.38;4.30;;;;;;;8.76;97.38;100759.56;5019891;28;20024;-81
2022/11/25 00:02:34;;;;;;;22.10;4.65;;;;;;;8.75;97.47;100747.97;5022071;28;20035;-82
2022/11/25 00:04:59;;;;;;;21.35;4.30;;;;;;;8.76;97.03;100755.06;5038779;28;20461;-81
2022/11/25 00:07:25;;;;;;;22.23;4.25;;;;;;;8.78;97.11;100758.47;5024436;28;20032;-81
2022/11/25 00:09:50;;;;;;;17.40;3.78;;;;;;;8.79;97.30;100754.00;5026502;28;20045;-81
2022/11/25 00:12:15;;;;;;;14.50;4.00;;;;;;;8.79;97.36;100754.00;5031938;28;20070;-82
2022/11/25 00:14:40;;;;;;;18.83;4.63;;;;;;;8.79;97.68;100754.00;5040543;28;20341;-81
2022/11/25 00:17:06;;;;;;;20.80;4.93;;;;;;;8.80;97.56;100747.66;5051529;28;20032;-82
2022/11/25 00:19:32;;;;;;;21.02;4.15;;;;;;;8.80;97.69;100747.66;5049845;28;20112;-82
2022/11/25 00:21:57;;;;;;;21.35;3.92;;;;;;;8.81;97.46;100741.34;5043175;28;20025;-82
2022/11/25 00:24:23;;;;;;;17.38;4.22;;;;;;;8.81;97.57;100746.69;5042523;28;20082;-82
2022/11/25 00:26:48;;;;;;;19.58;4.80;;;;;;;8.81;97.45;100733.31;5046830;28;20057;-82
2022/11/25 00:29:13;;;;;;;16.15;3.67;;;;;;;8.83;98.20;100736.72;5024163;28;20435;-81
2022/11/25 00:31:39;;;;;;;19.75;4.22;;;;;;;8.82;97.68;100735.03;5021242;28;20025;-82
2022/11/25 00:34:06;;;;;;;17.85;4.50;;;;;;;8.82;97.82;100735.03;5047210;28;20048;-81
2022/11/25 00:36:35;;;;;;;15.77;3.55;;;;;;;8.83;97.75;100731.38;5023548;28;20080;-81
2022/11/25 00:39:03;;;;;;;;;;;;;;;8.85;97.47;100727.63;5041228;28;20045;-81
2022/11/25 00:46:59;;;;;;;16.98;4.68;;;;;;;8.79;97.82;100713.81;5039092;28;20036;-81
2022/11/25 00:49:24;;;;;;;19.67;4.03;;;;;;;8.78;97.84;100712.94;5023257;28;20136;-81
2022/11/25 00:51:50;;;;;;;25.55;4.82;;;;;;;8.78;97.93;100715.59;5039034;28;20641;-82
2022/11/25 00:54:15;;;;;;;15.02;3.22;;;;;;;8.76;98.42;100714.03;5022816;28;20074;-82
2022/11/25 00:56:41;;;;;;;21.10;4.25;;;;;;;8.75;98.39;100726.53;5025997;28;20461;-81
2022/11/25 00:59:07;;;;;;;22.08;4.07;;;;;;;8.76;98.41;100724.72;5020475;28;20036;-82
2022/11/25 01:01:32;;;;;;;21.42;4.18;;;;;;;8.77;98.60;100729.09;5023618;28;20044;-81
2022/11/25 01:03:58;;;;;;;13.73;3.28;;;;;;;8.76;98.77;100732.78;5025027;28;20027;-82
2022/11/25 01:06:23;;;;;;;14.40;3.65;;;;;;;8.78;98.73;100733.50;5024082;28;20037;-82
2022/11/25 01:08:49;;;;;;;23.27;4.30;;;;;;;8.78;98.75;100737.03;5028432;28;20174;-81
2022/11/25 01:11:18;;;;;;;18.40;4.35;;;;;;;8.80;99.01;100736.94;5047877;28;20136;-82
2022/11/25 01:13:44;;;;;;;21.77;4.37;;;;;;;8.82;99.02;100738.56;5046391;28;20041;-81
2022/11/25 01:16:15;;;;;;;17.75;3.92;;;;;;;8.82;99.18;100732.34;5028359;28;20136;-82
2022/11/25 01:18:41;;;;;;;20.38;4.10;;;;;;;8.85;98.96;100734.81;5018891;28;20027;-82
2022/11/25 01:21:09;;;;;;;18.08;4.03;;;;;;;8.85;99.12;100737.50;5025804;28;20017;-82
2022/11/25 01:23:35;;;;;;;22.23;3.80;;;;;;;8.85;99.11;100732.13;5039684;28;20029;-82
2022/11/25 01:26:02;;;;;;;20.08;4.03;;;;;;;8.86;99.02;100737.41;5028555;28;20036;-82
2022/11/25 01:28:28;;;;;;;21.90;5.03;;;;;;;8.88;99.52;100737.28;5025690;28;20029;-82
2022/11/25 01:31:09;;;;;;;17.90;3.92;;;;;;;8.91;99.04;100754.00;5038939;28;20412;-82
2022/11/25 01:33:35;;;;;;;20.00;3.65;;;;;;;8.91;99.21;100754.00;5019273;28;20508;-81
2022/11/25 01:36:10;;;;;;;19.30;4.25;;;;;;;8.93;99.57;100748.53;5045451;28;20473;-82
2022/11/25 01:38:36;;;;;;;17.17;3.78;;;;;;;8.92;99.25;100749.53;5039373;28;20349;-81
2022/11/25 01:41:04;;;;;;;20.75;4.72;;;;;;;8.94;99.32;100754.78;5042684;28;20029;-82
2022/11/25 01:43:29;;;;;;;16.95;4.20;;;;;;;8.94;99.35;100763.66;5022483;28;20029;-81
2022/11/25 01:46:26;;;;;;;16.70;3.30;;;;;;;8.98;99.37;100767.00;5025440;28;20040;-81
2022/11/25 01:49:18;;;;;;;18.42;4.40;;;;;;;8.99;99.41;100768.72;5009340;28;20040;-82
2022/11/25 01:51:51;;;;;;;17.02;3.75;;;;;;;8.99;99.69;100777.63;5022740;28;20033;-82
2022/11/25 01:54:21;;;;;;;18.75;3.88;;;;;;;8.99;99.41;100776.75;5035957;28;20048;-81
2022/11/25 01:56:52;;;;;;;20.88;4.50;;;;;;;9.01;99.41;100781.06;5020691;28;20494;-82
2022/11/25 01:59:17;;;;;;;18.65;4.85;;;;;;;9.00;99.87;100779.31;5019525;28;20025;-81
2022/11/25 02:01:43;;;;;;;19.45;4.18;;;;;;;9.02;100.00;100793.50;5018657;28;20384;-84
2022/11/25 02:04:11;;;;;;;20.95;4.25;;;;;;;9.04;100.00;100794.25;5011439;28;20021;-84
2022/11/25 02:06:56;;;;;;;20.58;4.35;;;;;;;9.05;99.73;100803.16;5021042;28;20099;-84
2022/11/25 02:09:21;;;;;;;19.85;4.75;;;;;;;9.05;99.89;100800.47;5037764;28;20025;-84
2022/11/25 02:11:48;;;;;;;19.88;3.85;;;;;;;9.06;100.00;100805.75;5027488;28;20386;-84
2022/11/25 02:14:16;;;;;;;23.10;5.30;;;;;;;9.07;100.00;100801.22;5040316;28;20033;-84
2022/11/25 02:16:42;;;;;;;17.20;3.80;;;;;;;9.07;100.00;100803.91;5044401;28;20052;-84
2022/11/25 02:19:19;;;;;;;15.68;3.95;;;;;;;9.08;100.00;100813.69;5020225;28;20044;-84
2022/11/25 02:21:53;;;;;;;21.35;5.05;;;;;;;9.07;100.00;100812.78;5039509;28;20091;-84
2022/11/25 02:24:33;;;;;;;17.02;4.28;;;;;;;9.08;100.00;100817.22;5018518;28;20037;-84
2022/11/25 02:26:58;;;;;;;18.65;3.85;;;;;;;9.07;100.00;100823.53;5049103;28;20035;-84
2022/11/25 02:29:24;;;;;;;24.48;3.80;;;;;;;9.07;100.00;100828.03;5027833;28;20032;-84
2022/11/25 02:31:50;;;;;;;19.80;4.35;;;;;;;9.04;100.00;100829.09;5018040;28;20163;-84
2022/11/25 02:34:15;;;;;;;16.48;3.25;;;;;;;9.02;100.00;100820.31;5017585;28;20021;-84
2022/11/25 02:36:40;;;;;;;18.13;3.80;;;;;;;9.01;100.00;100834.66;5045251;28;20078;-84
2022/11/25 02:39:06;;;;;;;14.30;3.25;;;;;;;9.00;100.00;100835.63;5019565;28;20392;-84
2022/11/25 02:41:31;;;;;;;16.95;3.25;;;;;;;8.98;100.00;100836.72;5002650;28;20460;-84
2022/11/25 02:43:57;;;;;;;15.40;3.30;;;;;;;8.96;100.00;100842.19;5027067;28;20103;-84
2022/11/25 02:46:25;;;;;;;14.75;3.40;;;;;;;8.92;100.00;100832.63;5045713;28;20124;-84
2022/11/25 02:48:52;;;;;;;16.63;4.28;;;;;;;8.88;100.00;100826.56;5029260;28;20029;-83
2022/11/25 02:51:20;;;;;;;21.95;4.28;;;;;;;8.84;100.00;100819.69;5046936;28;20507;-83
2022/11/25 02:53:45;;;;;;;19.50;3.53;;;;;;;8.83;100.00;100818.00;5024227;28;20025;-82
2022/11/25 02:56:13;;;;;;;18.98;3.20;;;;;;;8.81;100.00;100808.34;5017248;28;20125;-82
2022/11/25 02:58:39;;;;;;;16.33;3.65;;;;;;;8.78;100.00;100779.06;5022031;28;20033;-82
2022/11/25 03:01:05;;;;;;;16.00;3.80;;;;;;;8.75;100.00;100769.41;5019397;28;20037;-83
2022/11/25 03:03:30;;;;;;;15.80;3.28;;;;;;;8.71;100.00;100759.84;5025556;28;20024;-83
2022/11/25 03:05:55;;;;;;;18.27;3.22;;;;;;;8.67;100.00;100745.81;5021690;28;20033;-83
2022/11/25 03:08:21;;;;;;;11.32;2.33;;;;;;;8.63;100.00;100752.34;5022778;28;20435;-83
2022/11/25 03:10:46;;;;;;;17.23;3.40;;;;;;;8.62;100.00;100758.66;5025241;28;20025;-82
2022/11/25 03:13:11;;;;;;;19.92;3.97;;;;;;;8.63;100.00;100775.59;5029572;28;20045;-82
2022/11/25 03:15:36;;;;;;;17.27;3.13;;;;;;;8.61;100.00;100788.22;5027544;28;20344;-82
2022/11/25 03:18:03;;;;;;;16.63;3.50;;;;;;;8.57;100.00;100793.78;5027867;28;20030;-82
2022/11/25 03:20:29;;;;;;;15.48;3.05;;;;;;;8.57;100.00;100792.94;5028670;28;20389;-82
2022/11/25 03:22:54;;;;;;;10.63;3.00;;;;;;;8.54;100.00;100785.94;5043963;28;20078;-82
2022/11/25 03:25:20;;;;;;;14.20;2.55;;;;;;;8.52;100.00;100777.16;5021153;28;20071;-83
2022/11/25 03:27:45;;;;;;;13.77;2.58;;;;;;;8.49;100.00;100774.69;5040360;28;20025;-83
2022/11/25 03:30:16;;;;;;;11.18;2.60;;;;;;;8.50;100.00;100783.56;5035607;28;20029;-82
2022/11/25 03:32:42;;;;;;;15.93;3.38;;;;;;;8.47;100.00;100802.53;5023171;28;20025;-82
2022/11/25 03:35:08;;;;;;;14.48;2.75;;;;;;;8.48;100.00;100828.38;5026896;28;20049;-82
2022/11/25 03:37:34;;;;;;;11.00;2.25;;;;;;;8.46;100.00;100823.06;5041436;28;20538;-82
2022/11/25 03:39:59;;;;;;;14.95;2.83;;;;;;;8.43;100.00;100828.59;5042106;28;20029;-82
2022/11/25 03:42:25;;;;;;;11.95;2.50;;;;;;;8.42;100.00;100826.91;5043103;28;20029;-82
2022/11/25 03:44:50;;;;;;;11.10;2.63;;;;;;;8.40;100.00;100824.34;5024459;28;20579;-82
2022/11/25 03:47:15;;;;;;;10.55;2.90;;;;;;;8.37;100.00;100826.34;5025480;28;20112;-82
2022/11/25 03:49:41;;;;;;;14.80;2.75;;;;;;;8.36;100.00;100833.50;5038636;28;20052;-82
2022/11/25 03:52:06;;;;;;;14.98;2.60;;;;;;;8.36;100.00;100828.16;5024941;28;20052;-82
2022/11/25 03:54:31;;;;;;;9.35;2.70;;;;;;;8.34;100.00;100846.13;5041056;28;20070;-82
2022/11/25 03:56:57;;;;;;;7.72;1.70;;;;;;;8.32;100.00;100844.53;5034433;28;20086;-82
2022/11/25 03:59:22;;;;;;;10.88;2.38;;;;;;;8.30;100.00;100833.03;5041355;28;20079;-82
2022/11/25 04:01:47;;;;;;;15.43;2.08;;;;;;;8.30;100.00;100843.75;5023353;28;20110;-83
2022/11/25 04:04:13;;;;;;;8.90;2.25;;;;;;;8.27;100.00;100839.44;5039933;28;20481;-82
2022/11/25 04:06:38;;;;;;;10.55;2.22;;;;;;;8.27;100.00;100849.31;5019910;28;20036;-82
2022/11/25 04:09:05;;;;;;;8.25;2.25;;;;;;;8.25;100.00;100852.06;5021307;28;20109;-82
2022/11/25 04:14:14;;;;;;;8.77;2.17;;;;;;;8.16;100.00;100848.16;5047976;28;20544;-82
2022/11/25 04:16:40;;;;;;;4.93;1.48;;;;;;;8.12;100.00;100856.50;5025960;28;20129;-82
2022/11/25 04:19:05;;;;;;;7.53;2.13;;;;;;;8.04;100.00;100857.84;5021998;28;20038;-82
2022/11/25 04:21:30;;;;;;;7.22;1.63;;;;;;;8.01;100.00;100866.06;5029946;28;20418;-82
2022/11/25 04:23:56;;;;;;;8.98;2.20;;;;;;;7.97;100.00;100875.22;5041844;28;20029;-82
2022/11/25 04:26:22;;;;;;;4.28;1.25;;;;;;;7.94;100.00;100877.25;5020136;28;20525;-82
2022/11/25 04:28:47;;;;;;;7.60;2.30;;;;;;;7.92;100.00;100876.47;5023617;28;20037;-82
2022/11/25 04:31:13;;;;;;;6.28;1.95;;;;;;;7.90;100.00;100884.59;5020813;28;20105;-82
2022/11/25 04:33:38;;;;;;;9.23;1.70;;;;;;;7.90;100.00;100891.75;5042031;28;20165;-82
2022/11/25 04:36:04;;;;;;;5.85;1.63;;;;;;;7.88;100.00;100894.53;5045175;28;20098;-82
2022/11/25 04:38:29;;;;;;;6.70;1.70;;;;;;;7.85;100.00;100903.59;5041174;28;20013;-82
2022/11/25 04:40:54;;;;;;;7.32;2.10;;;;;;;7.86;100.00;100910.69;5036970;28;20481;-82
2022/11/25 04:43:20;;;;;;;9.98;1.92;;;;;;;7.86;100.00;100915.16;5024176;28;20033;-82
2022/11/25 04:45:47;;;;;;;10.25;2.17;;;;;;;7.86;100.00;100910.69;5019927;28;20037;-82
2022/11/25 04:48:12;;;;;;;5.93;1.58;;;;;;;7.87;100.00;100911.53;5039522;28;20041;-82
2022/11/25 04:50:38;;;;;;;10.10;2.35;;;;;;;7.86;100.00;100907.13;5042152;28;20032;-82
2022/11/25 04:53:03;;;;;;;7.72;2.15;;;;;;;7.84;100.00;100901.03;5037236;28;20555;-82
2022/11/25 04:55:28;;;;;;;5.15;1.60;;;;;;;7.82;100.00;100898.44;5021827;28;20477;-82
2022/11/25 04:57:54;;;;;;;5.85;1.88;;;;;;;7.81;100.00;100909.25;5017935;28;20420;-82
2022/11/25 05:00:20;;;;;;;8.00;1.90;;;;;;;7.79;100.00;100920.03;5022032;28;20033;-82
2022/11/25 05:02:45;;;;;;;11.63;2.45;;;;;;;7.76;100.00;100919.34;5038830;28;20033;-82
2022/11/25 05:05:10;;;;;;;7.93;2.13;;;;;;;7.73;100.00;100925.75;5020353;28;20033;-82
2022/11/25 05:07:37;;;;;;;9.30;2.03;;;;;;;7.73;100.00;100925.75;5022041;28;20028;-82
2022/11/25 05:10:03;;;;;;;4.55;1.80;;;;;;;7.70;100.00;100916.09;5024823;28;20147;-82
2022/11/25 05:12:28;;;;;;;5.43;1.88;;;;;;;7.68;100.00;100934.03;5045612;28;20386;-82
2022/11/25 05:14:55;;;;;;;9.43;2.00;;;;;;;7.63;100.00;100932.63;5043203;28;20059;-82
2022/11/25 05:17:23;;;;;;;8.88;2.22;;;;;;;7.58;100.00;100929.34;5016503;28;20124;-82
2022/11/25 05:19:49;;;;;;;14.15;2.70;;;;;;;7.54;100.00;100936.69;5016924;28;20040;-82
2022/11/25 05:22:21;;;;;;;15.15;2.50;;;;;;;7.51;100.00;100932.38;5022600;28;20104;-82
2022/11/25 05:24:47;;;;;;;7.13;2.15;;;;;;;7.51;100.00;100935.06;5020848;28;20499;-82
2022/11/25 05:27:13;;;;;;;8.75;2.45;;;;;;;7.51;100.00;100934.19;5036230;28;20448;-82
2022/11/25 05:29:38;;;;;;;9.80;2.63;;;;;;;7.46;100.00;100923.75;5046326;28;20041;-82
2022/11/25 05:32:04;;;;;;;10.38;2.25;;;;;;;7.42;100.00;100932.91;5045278;28;20617;-82
2022/11/25 05:34:30;;;;;;;9.30;2.33;;;;;;;7.40;100.00;100937.50;5042271;28;20090;-82
2022/11/25 05:36:55;;;;;;;12.07;2.97;;;;;;;7.36;100.00;100935.94;5038290;28;20136;-82
2022/11/25 05:39:21;;;;;;;12.80;2.83;;;;;;;7.33;100.00;100928.97;5039867;28;20064;-82
2022/11/25 05:41:46;;;;;;;11.30;2.92;;;;;;;7.29;100.00;100935.47;5024587;28;20071;-82
2022/11/25 05:44:12;;;;;;;14.88;3.20;;;;;;;7.26;100.00;100938.31;5025466;28;20087;-82
2022/11/25 05:46:37;;;;;;;16.48;4.25;;;;;;;7.23;100.00;100941.16;5022515;28;20032;-82
2022/11/25 05:49:02;;;;;;;11.98;3.10;;;;;;;7.22;100.00;100942.13;5017998;28;20033;-82
2022/11/25 05:51:28;;;;;;;11.43;3.28;;;;;;;7.19;100.00;100953.00;5038830;28;20040;-82
2022/11/25 05:53:54;;;;;;;15.85;3.53;;;;;;;7.14;100.00;100939.00;5023509;28;20047;-82
2022/11/25 05:56:20;;;;;;;17.52;4.10;;;;;;;7.13;100.00;100961.34;5037768;28;20032;-82
2022/11/25 05:58:45;;;;;;;11.77;3.53;;;;;;;7.12;100.00;100965.84;5033279;28;20032;-81
2022/11/25 06:01:13;;;;;;;14.48;3.30;;;;;;;7.10;100.00;100958.84;5039832;28;20035;-82
2022/11/25 06:03:42;;;;;;;15.95;4.07;;;;;;;7.10;100.00;100964.19;5022826;28;20107;-82
2022/11/25 06:06:08;;;;;;;12.43;3.83;;;;;;;7.08;100.00;100963.44;5039318;28;20077;-82
2022/11/25 06:08:35;;;;;;;13.50;3.53;;;;;;;7.08;100.00;100966.94;5013631;28;20029;-82
2022/11/25 06:11:10;;;;;;;16.85;4.22;;;;;;;7.07;100.00;100962.56;5020030;28;20040;-81
2022/11/25 06:13:37;;;;;;;17.75;4.30;;;;;;;7.09;100.00;100963.34;5021638;28;20504;-82
2022/11/25 06:16:21;;;;;;;14.90;4.07;;;;;;;7.09;100.00;100975.84;5024563;28;20067;-82
2022/11/25 06:18:47;;;;;;;17.40;4.57;;;;;;;7.11;100.00;100973.94;5025230;28;20116;-82
2022/11/25 06:21:13;;;;;;;15.68;4.38;;;;;;;7.12;100.00;100983.69;5024396;28;20124;-82
2022/11/25 06:23:44;;;;;;;13.90;3.92;;;;;;;7.12;100.00;100983.69;5019192;28;20033;-82
2022/11/25 06:26:14;;;;;;;10.32;3.13;;;;;;;7.13;100.00;100980.03;5024116;28;20033;-82
2022/11/25 06:28:39;;;;;;;19.20;4.38;;;;;;;7.13;100.00;100980.94;5013700;28;20090;-82
2022/11/25 06:31:13;;;;;;;15.82;3.60;;;;;;;7.13;100.00;100993.41;5024503;28;20480;-82
2022/11/25 06:33:39;;;;;;;13.32;3.47;;;;;;;7.12;100.00;100994.38;5036009;28;20025;-82
2022/11/25 06:36:06;;;;;;;15.10;3.38;;;;;;;7.10;100.00;100990.91;5022523;28;20021;-82
2022/11/25 06:38:32;;;;;;;12.77;3.63;;;;;;;7.10;100.00;101005.16;5026429;28;20029;-82
2022/11/25 06:41:00;;;;;;;11.43;3.20;;;;;;;7.09;100.00;101000.75;5030056;28;20095;-82
2022/11/25 06:43:25;;;;;;;16.95;3.45;;;;;;;7.06;100.00;101000.94;5043796;28;20048;-82
2022/11/25 06:45:51;;;;;;;13.43;3.53;;;;;;;7.04;100.00;101009.97;5028063;28;20029;-82
2022/11/25 06:48:16;;;;;;;9.88;2.80;;;;;;;7.03;100.00;101013.59;5042852;28;20035;-82
2022/11/25 06:50:41;;;;;;;15.68;3.65;;;;;;;7.03;100.00;101016.25;5018640;28;20389;-82
2022/11/25 06:53:06;;;;;;;11.38;2.90;;;;;;;7.02;100.00;101014.56;5018012;28;20121;-82
2022/11/25 06:55:32;;;;;;;9.57;2.67;;;;;;;6.99;100.00;101016.44;5038763;28;20594;-82
2022/11/25 06:57:57;;;;;;;10.35;2.78;;;;;;;6.98;100.00;101012.06;5038444;28;20113;-81
2022/11/25 07:00:22;;;;;;;12.65;3.05;;;;;;;6.94;100.00;101026.53;5038329;28;20029;-81
2022/11/25 07:02:47;;;;;;;10.15;3.00;;;;;;;6.94;100.00;101021.19;5026662;28;20064;-81
2022/11/25 07:05:13;;;;;;;12.23;3.03;;;;;;;6.92;100.00;101032.91;5019374;28;20057;-81
2022/11/25 07:07:38;;;;;;;14.60;3.33;;;;;;;6.90;100.00;101029.47;5023832;28;20094;-81
2022/11/25 07:10:04;;;;;;;16.48;3.30;;;;;;;6.89;100.00;101035.75;5022311;28;20071;-82
2022/11/25 07:12:29;;;;;;;10.65;3.30;;;;;;;6.84;100.00;101033.31;5036574;28;20176;-81
2022/11/25 07:14:55;;;;;;;11.25;3.15;;;;;;;6.84;100.00;101046.69;5047113;28;20025;-81
2022/11/25 07:17:20;;;;;;;11.60;3.40;;;;;;;6.82;100.00;101053.91;5022170;28;20060;-81
2022/11/25 07:19:45;;;;;;;14.20;3.78;;;;;;;6.79;100.00;101048.72;5030685;28;20039;-81
2022/11/25 07:22:11;;;;;;;15.73;3.47;;;;;;;6.78;100.00;101060.38;5039871;28;20496;-81
2022/11/25 07:24:36;;;;;;;11.82;3.58;;;;;;;6.77;100.00;101069.31;5038210;28;20095;-81
2022/11/25 07:27:04;;;;;;;13.57;3.22;;;;;;;6.77;100.00;101067.50;5041663;28;20057;-81
2022/11/25 07:29:30;;;;;;;17.60;4.68;;;;;;;6.76;100.00;101073.78;5022320;28;20554;-81
2022/11/25 07:31:55;;;;;;;17.17;3.72;;;;;;;6.74;100.00;101077.50;5019071;28;20033;-81
2022/11/25 07:34:20;;;;;;;13.07;3.05;;;;;;;6.73;100.00;101073.97;5020929;28;20361;-81
2022/11/25 07:36:47;;;;;;;14.93;3.75;;;;;;;6.73;100.00;101083.78;5016967;28;20116;-81
2022/11/25 07:39:16;;;;;;;15.30;3.45;;;;;;;6.73;100.00;101089.97;5017252;28;20152;-81
2022/11/25 07:41:42;;;;;;;10.73;3.10;;;;;;;6.73;100.00;101094.47;5033567;28;20053;-81
2022/11/25 07:44:10;;;;;;;9.48;2.75;;;;;;;6.74;100.00;101099.72;5021192;28;20488;-81
2022/11/25 07:46:38;;;;;;;15.98;3.75;;;;;;;6.73;100.00;101106.00;5023928;28;20049;-81
2022/11/25 07:49:07;;;;;;;8.65;3.03;;;;;;;6.74;100.00;101113.09;5016678;28;20036;-81
2022/11/25 07:51:35;;;;;;;13.13;3.22;;;;;;;6.74;100.00;101121.09;5011856;28;20034;-81
2022/11/25 07:54:04;;;;;;;11.60;3.15;;;;;;;6.76;100.00;101123.69;5013644;28;20045;-81
2022/11/25 07:56:32;;;;;;;14.50;3.70;;;;;;;6.77;100.00;101122.75;5029874;28;20028;-82
2022/11/25 07:58:58;;;;;;;12.95;3.53;;;;;;;6.78;100.00;101125.34;5009796;28;20608;-81
2022/11/25 08:01:23;;;;;;;13.15;3.88;;;;;;;6.81;100.00;101133.19;5031478;28;20028;-81
2022/11/25 08:03:50;;;;;;;10.75;3.30;;;;;;;6.83;100.00;101135.78;5031602;28;20108;-81
2022/11/25 08:06:18;;;;;;;12.40;3.70;;;;;;;6.85;100.00;101144.56;5033363;28;20037;-81
2022/11/25 08:08:45;;;;;;;13.40;3.72;;;;;;;6.85;100.00;101141.88;5012701;28;20036;-81
2022/11/25 08:11:16;;;;;;;14.77;3.92;;;;;;;6.88;100.00;101140.88;5025012;28;20056;-82
2022/11/25 08:13:42;;;;;;;13.77;3.40;;;;;;;6.91;100.00;101146.06;5009311;28;20044;-81
2022/11/25 08:16:08;;;;;;;12.52;3.35;;;;;;;6.90;100.00;101153.22;5028769;28;20032;-81
2022/11/25 08:18:33;;;;;;;13.88;3.55;;;;;;;6.95;100.00;101159.16;5011826;28;20556;-82
2022/11/25 08:21:04;;;;;;;15.23;3.28;;;;;;;6.97;100.00;101159.97;5043848;28;20064;-82
2022/11/25 08:23:30;;;;;;;12.93;3.60;;;;;;;6.99;100.00;101163.41;5041377;28;20115;-82
2022/11/25 08:25:56;;;;;;;12.00;3.67;;;;;;;7.02;100.00;101167.72;5013625;28;20018;-82
2022/11/25 08:28:22;;;;;;;12.07;3.42;;;;;;;7.05;100.00;101164.03;5018051;28;20120;-82
2022/11/25 08:30:48;;;;;;;11.82;3.03;;;;;;;7.07;100.00;101165.69;5019593;28;20036;-82
2022/11/25 08:33:13;;;;;;;15.07;3.92;;;;;;;7.12;100.00;101176.13;5016364;28;20451;-82
2022/11/25 08:35:38;;;;;;;15.50;4.13;;;;;;;7.13;100.00;101175.16;5020410;28;20056;-82
2022/11/25 08:38:06;;;;;;;18.40;3.72;;;;;;;7.17;100.00;101174.06;5044402;28;20115;-82
2022/11/25 08:40:34;;;;;;;19.05;4.13;;;;;;;7.18;100.00;101181.13;5026009;28;20029;-82
2022/11/25 08:42:59;;;;;;;16.30;3.83;;;;;;;7.20;100.00;101168.53;5045151;28;20020;-82
2022/11/25 08:45:25;;;;;;;17.67;4.53;;;;;;;7.24;100.00;101170.09;5051423;28;20025;-82
2022/11/25 08:47:50;;;;;;;12.43;4.03;;;;;;;7.26;100.00;101167.34;5047666;28;20033;-82
2022/11/25 08:50:15;;;;;;;14.85;4.22;;;;;;;7.30;100.00;101183.13;5028140;28;20037;-82
2022/11/25 08:52:41;;;;;;;14.07;3.50;;;;;;;7.32;100.00;101183.94;5045712;28;20295;-82
2022/11/25 08:55:09;;;;;;;20.75;4.25;;;;;;;7.35;100.00;101177.56;5052399;28;20135;-82
2022/11/25 08:57:34;;;;;;;16.52;4.50;;;;;;;7.40;100.00;101182.66;5028007;28;20030;-82
2022/11/25 09:00:00;;;;;;;15.18;4.03;;;;;;;7.45;100.00;101191.28;5042508;28;20025;-82
2022/11/25 09:02:25;;;;;;;14.93;4.30;;;;;;;7.48;100.00;101188.44;5025333;28;20033;-82
2022/11/25 09:04:51;;;;;;;17.73;4.57;;;;;;;7.49;100.00;101193.69;5041888;28;20029;-82
2022/11/25 09:07:16;;;;;;;13.82;4.05;;;;;;;7.54;100.00;101193.47;5015479;28;20040;-82
2022/11/25 09:09:41;;;;;;;19.23;4.63;;;;;;;7.55;100.00;101203.19;5041458;28;20378;-82
2022/11/25 09:12:07;;;;;;;23.25;4.57;;;;;;;7.60;100.00;101206.50;5027714;28;20057;-83
2022/11/25 09:14:32;;;;;;;18.58;4.70;;;;;;;7.63;100.00;101209.00;5047603;28;20391;-82
2022/11/25 09:16:58;;;;;;;17.38;4.72;;;;;;;7.69;100.00;101213.16;5015829;28;20040;-79
2022/11/25 09:19:23;;;;;;;18.45;4.65;;;;;;;7.72;100.00;101218.31;5043843;28;20116;-82
2022/11/25 09:21:48;;;;;;;17.40;4.50;;;;;;;7.73;100.00;101220.06;5043093;28;20111;-83
2022/11/25 09:24:13;;;;;;;23.08;5.68;;;;;;;7.79;100.00;101224.19;5022233;28;20145;-83
2022/11/25 09:26:41;;;;;;;15.73;4.28;;;;;;;7.81;100.00;101227.66;5046374;28;20083;-83
2022/11/25 09:29:06;;;;;;;19.27;4.72;;;;;;;7.84;100.00;101224.81;5030007;28;20056;-84
2022/11/25 09:31:32;;;;;;;17.27;4.68;;;;;;;7.87;100.00;101233.50;5026716;28;20056;-84
2022/11/25 09:33:58;;;;;;;20.67;4.60;;;;;;;7.91;100.00;101239.56;5018435;28;20106;-83
2022/11/25 09:36:23;;;;;;;18.60;4.93;;;;;;;7.94;100.00;101238.53;5025023;28;20443;-82
2022/11/25 09:38:50;;;;;;;16.88;4.53;;;;;;;7.96;100.00;101242.84;5019899;28;20033;-82
2022/11/25 09:46:40;;;;;;;14.40;4.03;;;;;;;8.00;100.00;101244.41;5046048;28;20043;-83
2022/11/25 09:47:34;;;;;;;19.35;4.53;;;;;;;8.09;100.00;101258.22;5043017;28;20048;-83
2022/11/25 09:50:20;;;;;;;19.50;5.47;;;;;;;8.15;100.00;101260.56;5048059;28;20029;-83
2022/11/25 09:53:00;;;;;;;20.35;5.15;;;;;;;8.19;100.00;101264.78;5023613;28;20051;-83
2022/11/25 09:55:33;;;;;;;14.25;3.78;;;;;;;8.21;100.00;101266.44;5025486;28;20492;-83
2022/11/25 09:58:29;;;;;;;16.05;3.97;;;;;;;8.25;100.00;101267.09;5023948;28;20449;-83
2022/11/25 10:00:54;;;;;;;19.55;3.70;;;;;;;8.27;100.00;101273.22;5014881;28;20025;-83
2022/11/25 10:03:20;;;;;;;17.95;4.68;;;;;;;8.31;100.00;101273.94;5036637;28;20079;-83
2022/11/25 10:06:11;;;;;;;18.40;3.85;;;;;;;8.34;100.00;101279.13;5037507;28;20029;-83
2022/11/25 10:08:43;;;;;;;14.25;4.38;;;;;;;8.37;100.00;101281.63;5015103;28;20048;-83
2022/11/25 10:11:32;;;;;;;15.25;4.05;;;;;;;8.38;100.00;101289.56;5024960;28;20057;-83
2022/11/25 10:14:20;;;;;;;12.20;3.65;;;;;;;8.43;100.00;101283.06;5032841;28;20482;-84
2022/11/25 10:16:55;;;;;;;12.25;3.65;;;;;;;8.45;100.00;101292.78;5025251;28;20033;-84
2022/11/25 10:19:39;;;;;;;15.85;4.03;;;;;;;8.50;100.00;101300.56;5043895;28;20040;-84
2022/11/25 10:22:14;;;;;;;13.35;3.65;;;;;;;8.51;100.00;101302.31;5014500;28;20037;-84
2022/11/25 10:24:39;;;;;;;19.08;4.78;;;;;;;8.54;100.00;101318.19;5023983;28;20378;-84
2022/11/25 10:27:13;;;;;;;14.57;4.15;;;;;;;8.57;100.00;101315.34;5031238;28;20677;-84
2022/11/25 10:29:41;;;;;;;15.85;4.07;;;;;;;8.61;100.00;101314.22;5042872;28;20469;-84
2022/11/25 10:32:10;;;;;;;16.38;4.20;;;;;;;8.66;100.00;101317.47;5037338;28;20035;-85
2022/11/25 10:34:41;;;;;;;10.55;3.25;;;;;;;8.70;100.00;101335.09;5036264;28;20103;-84
2022/11/25 10:37:15;;;;;;;12.45;3.17;;;;;;;8.72;100.00;101327.84;5045720;28;20037;-84
2022/11/25 10:39:40;;;;;;;14.55;3.72;;;;;;;8.76;100.00;101333.03;5037291;28;20029;-84
2022/11/25 10:42:14;;;;;;;16.58;3.42;;;;;;;8.79;100.00;101331.03;5027328;28;20028;-84
2022/11/25 10:44:42;;;;;;;17.42;4.10;;;;;;;8.83;100.00;101342.41;5027327;28;20032;-85
2022/11/25 10:47:19;;;;;;;14.00;3.53;;;;;;;8.87;100.00;101342.19;5035006;28;20416;-85
2022/11/25 10:49:45;;;;;;;14.70;3.60;;;;;;;8.91;100.00;101337.50;5021682;28;20384;-84
2022/11/25 10:52:12;;;;;;;16.35;3.60;;;;;;;8.93;100.00;101340.94;5027245;28;20039;-85
2022/11/25 10:54:37;;;;;;;16.80;3.30;;;;;;;8.97;100.00;101337.13;5048120;28;20108;-85
2022/11/25 10:57:15;;;;;;;13.07;3.33;;;;;;;9.01;100.00;101343.19;5029323;28;20111;-85
2022/11/25 10:59:41;;;;;;;17.30;3.45;;;;;;;9.02;98.73;101345.78;5047179;28;20117;-85
2022/11/25 11:02:24;;;;;;;14.07;3.55;;;;;;;9.08;99.63;101355.28;5023701;28;20524;-85
2022/11/25 11:05:03;;;;;;;11.82;3.75;;;;;;;9.09;99.21;101355.19;5023467;28;20068;-84
2022/11/25 11:07:34;;;;;;;14.50;3.63;;;;;;;9.12;98.42;101356.81;5045136;28;20024;-85
2022/11/25 11:10:19;;;;;;;19.25;3.90;;;;;;;9.16;98.65;101365.53;5030404;28;20029;-85
2022/11/25 11:12:59;;;;;;;16.90;3.85;;;;;;;9.20;98.47;101361.72;5032326;28;20572;-85
2022/11/25 11:15:27;;;;;;;16.50;3.85;;;;;;;9.25;98.37;101367.66;5042686;28;20028;-85
2022/11/25 11:17:54;;;;;;;9.75;3.08;;;;;;;9.26;97.67;101372.09;5030133;28;20029;-85
2022/11/25 11:20:26;;;;;;;15.70;3.45;;;;;;;9.31;97.83;101371.81;5010714;28;20091;-85
2022/11/25 11:23:06;;;;;;;12.32;2.63;;;;;;;9.32;96.94;101382.44;5037355;28;20337;-85
2022/11/25 11:25:34;;;;;;;14.43;3.40;;;;;;;9.36;95.01;101378.63;5022572;28;20175;-85
2022/11/25 11:28:01;;;;;;;16.52;3.30;;;;;;;9.39;95.74;101380.28;5030737;28;20460;-86
2022/11/25 11:30:30;;;;;;;12.10;3.08;;;;;;;9.44;94.30;101383.53;5027149;28;20029;-85
2022/11/25 11:33:03;;;;;;;10.85;2.90;;;;;;;9.45;96.16;101391.50;5039495;28;20025;-85